createdAt,value
2022-09-15T00:00:33.408Z,149324.81
2022-09-15T00:01:35.998Z,149340.69
2022-09-15T00:02:38.708Z,149329.69
2022-09-15T00:03:41.239Z,149306.59
2022-09-15T00:04:43.379Z,149317.53
2022-09-15T00:05:45.772Z,149300.53
2022-09-15T00:06:47.879Z,149292.00
2022-09-15T00:07:49.976Z,149301.75
2022-09-15T00:08:52.157Z,149299.28
2022-09-15T00:09:54.250Z,149311.47
2022-09-15T00:11:06.137Z,149339.47
2022-09-15T00:12:08.294Z,149272.56
2022-09-15T00:13:10.422Z,149298.06
2022-09-15T00:14:12.541Z,149300.53
2022-09-15T00:15:16.878Z,149317.53
2022-09-15T00:16:21.141Z,149329.69
2022-09-15T00:17:23.974Z,149306.59
2022-09-15T00:18:26.105Z,149294.41
2022-09-15T00:19:28.254Z,149309.03
2022-09-15T00:20:30.926Z,149311.47
2022-09-15T00:21:35.538Z,149374.75
2022-09-15T00:22:38.088Z,149326.03
2022-09-15T00:23:40.244Z,149313.91
2022-09-15T00:24:42.419Z,149323.59
2022-09-15T00:25:48.241Z,149377.16
2022-09-15T00:26:50.543Z,149296.84
2022-09-15T00:27:52.695Z,149306.59
2022-09-15T00:28:56.693Z,149316.31
2022-09-15T00:29:58.954Z,149265.22
2022-09-15T00:31:05.760Z,149382.03
2022-09-15T00:32:07.999Z,149270.13
2022-09-15T00:33:10.605Z,149304.19
2022-09-15T00:34:13.801Z,149312.69
2022-09-15T00:35:15.966Z,149262.81
2022-09-15T00:36:19.289Z,149326.03
2022-09-15T00:37:22.191Z,149328.47
2022-09-15T00:38:24.278Z,149306.59
2022-09-15T00:39:26.431Z,149267.72
2022-09-15T00:40:28.820Z,149265.22
2022-09-15T00:41:31.590Z,149270.13
2022-09-15T00:42:33.867Z,149304.19
2022-09-15T00:43:53.650Z,149447.72
2022-09-15T00:44:58.995Z,149360.13
2022-09-15T00:46:01.258Z,149318.75
2022-09-15T00:47:21.842Z,149345.56
2022-09-15T00:48:24.002Z,149333.41
2022-09-15T00:49:36.524Z,149447.72
2022-09-15T00:50:41.349Z,149418.50
2022-09-15T00:52:08.703Z,149462.28
2022-09-15T00:53:12.373Z,149418.50
2022-09-15T00:54:22.645Z,149465.97
2022-09-15T00:55:32.895Z,149472.03
2022-09-15T00:56:38.535Z,149445.28
2022-09-15T00:57:53.639Z,149345.56
2022-09-15T00:59:01.659Z,149455.00
2022-09-15T01:00:10.393Z,149446.50
2022-09-15T01:01:14.429Z,149401.50
2022-09-15T01:02:21.388Z,149413.66
2022-09-15T01:03:26.121Z,149369.88
2022-09-15T01:04:28.480Z,149343.13
2022-09-15T01:05:44.918Z,149452.56
2022-09-15T01:06:52.234Z,149428.22
2022-09-15T01:08:06.039Z,149395.38
2022-09-15T01:09:17.882Z,149396.59
2022-09-15T01:10:23.302Z,149275.00
2022-09-15T01:11:25.651Z,149326.03
2022-09-15T01:12:28.572Z,149364.97
2022-09-15T01:13:30.786Z,149345.56
2022-09-15T01:14:33.039Z,149357.69
2022-09-15T01:16:12.043Z,149401.50
2022-09-15T01:17:34.455Z,149319.97
2022-09-15T01:18:45.472Z,145702.34
2022-09-15T01:20:06.122Z,141615.81
2022-09-15T01:21:14.030Z,139545.44
2022-09-15T01:22:34.954Z,149328.47
2022-09-15T01:23:37.041Z,149360.13
2022-09-15T01:25:03.627Z,149450.13
2022-09-15T01:26:33.698Z,149464.75
2022-09-15T01:28:04.974Z,149455.00
2022-09-15T01:29:25.363Z,149425.78
2022-09-15T01:30:35.729Z,142670.84
2022-09-15T01:32:08.217Z,145583.53
2022-09-15T01:33:35.197Z,136546.91
2022-09-15T01:34:44.543Z,142424.50
2022-09-15T01:36:12.709Z,123666.28
2022-09-15T01:37:24.271Z,113915.13
2022-09-15T01:38:41.803Z,113913.28
2022-09-15T01:39:48.036Z,93021.56
2022-09-15T01:40:55.709Z,88383.81
2022-09-15T01:42:02.057Z,84708.25
2022-09-15T01:43:06.564Z,86386.56
2022-09-15T01:44:20.070Z,80372.50
2022-09-15T01:45:30.400Z,75385.34
2022-09-15T01:46:39.503Z,77739.28
2022-09-15T01:47:41.966Z,82709.91
2022-09-15T01:48:46.643Z,77386.22
2022-09-15T01:49:53.788Z,76711.78
2022-09-15T01:51:01.253Z,72411.78
2022-09-15T01:52:04.091Z,74690.72
2022-09-15T01:53:17.803Z,64427.16
2022-09-15T01:54:32.691Z,66401.22
2022-09-15T01:55:44.432Z,52794.16
2022-09-15T01:56:46.820Z,56407.50
2022-09-15T01:57:50.575Z,50129.72
2022-09-15T01:58:52.957Z,51769.59
2022-09-15T01:59:56.217Z,54452.84
2022-09-15T02:01:31.679Z,50470.81
2022-09-15T02:02:44.062Z,42541.56
2022-09-15T02:03:55.581Z,48829.91
2022-09-15T02:05:06.257Z,47178.03
2022-09-15T02:06:15.734Z,54129.22
2022-09-15T02:07:27.313Z,49165.38
2022-09-15T02:08:52.371Z,55807.72
2022-09-15T02:10:11.611Z,58799.78
2022-09-15T02:11:16.267Z,62418.28
2022-09-15T02:12:33.985Z,59794.63
2022-09-15T02:13:59.809Z,59459.88
2022-09-15T02:15:12.440Z,57145.59
2022-09-15T02:16:20.589Z,58122.78
2022-09-15T02:17:25.229Z,53145.34
2022-09-15T02:18:37.789Z,56142.84
2022-09-15T02:19:44.989Z,61454.34
2022-09-15T02:20:59.385Z,60449.56
2022-09-15T02:22:11.069Z,59790.41
2022-09-15T02:23:24.199Z,56788.34
2022-09-15T02:24:34.704Z,55466.97
2022-09-15T02:25:43.319Z,49825.00
2022-09-15T02:26:49.509Z,49500.22
2022-09-15T02:27:55.216Z,47180.97
2022-09-15T02:29:01.008Z,45858.78
2022-09-15T02:30:14.794Z,45540.19
2022-09-15T02:31:20.251Z,46518.75
2022-09-15T02:32:24.114Z,49834.34
2022-09-15T02:33:33.017Z,51832.47
2022-09-15T02:34:42.827Z,49838.63
2022-09-15T02:35:45.827Z,48830.66
2022-09-15T02:36:50.100Z,45840.25
2022-09-15T02:37:53.297Z,42866.56
2022-09-15T02:39:07.593Z,42227.00
2022-09-15T02:40:10.363Z,46516.59
2022-09-15T02:41:13.757Z,50479.88
2022-09-15T02:42:36.169Z,50192.84
2022-09-15T02:43:48.094Z,51844.63
2022-09-15T02:44:50.457Z,54140.25
2022-09-15T02:45:53.976Z,51814.22
2022-09-15T02:46:57.725Z,48506.97
2022-09-15T02:48:00.021Z,49834.34
2022-09-15T02:49:02.432Z,55805.06
2022-09-15T02:50:05.080Z,59797.00
2022-09-15T02:51:07.273Z,58120.03
2022-09-15T02:52:09.397Z,60783.97
2022-09-15T02:53:11.527Z,59105.13
2022-09-15T02:54:13.772Z,58454.09
2022-09-15T02:55:16.383Z,60772.00
2022-09-15T02:56:18.731Z,56782.13
2022-09-15T02:57:21.034Z,57115.94
2022-09-15T02:58:23.779Z,57457.50
2022-09-15T02:59:26.220Z,62112.75
2022-09-15T03:00:28.866Z,66785.38
2022-09-15T03:01:32.217Z,66424.38
2022-09-15T03:02:34.541Z,65440.63
2022-09-15T03:03:41.017Z,65104.09
2022-09-15T03:04:44.990Z,68436.38
2022-09-15T03:05:47.300Z,69101.28
2022-09-15T03:06:49.429Z,68767.44
2022-09-15T03:07:52.534Z,68779.97
2022-09-15T03:08:58.381Z,63124.22
2022-09-15T03:10:00.474Z,65107.69
2022-09-15T03:11:02.553Z,66781.16
2022-09-15T03:12:05.089Z,71786.41
2022-09-15T03:13:08.606Z,72779.41
2022-09-15T03:14:10.758Z,71777.84
2022-09-15T03:15:15.045Z,69793.38
2022-09-15T03:16:17.173Z,71110.13
2022-09-15T03:17:19.413Z,67433.59
2022-09-15T03:18:21.517Z,67445.34
2022-09-15T03:19:23.616Z,69777.91
2022-09-15T03:20:28.587Z,67145.66
2022-09-15T03:21:30.913Z,70783.34
2022-09-15T03:22:33.348Z,71114.06
2022-09-15T03:23:35.740Z,70444.78
2022-09-15T03:24:38.456Z,69124.28
2022-09-15T03:25:40.592Z,70784.47
2022-09-15T03:26:42.686Z,70783.34
2022-09-15T03:27:44.820Z,72118.34
2022-09-15T03:28:46.936Z,70779.97
2022-09-15T03:29:49.086Z,69783.44
2022-09-15T03:30:51.242Z,70115.22
2022-09-15T03:31:53.993Z,64763.50
2022-09-15T03:32:56.254Z,57459.31
2022-09-15T03:33:58.385Z,56796.84
2022-09-15T03:35:00.641Z,54806.56
2022-09-15T03:36:03.817Z,54487.06
2022-09-15T03:37:06.850Z,55810.78
2022-09-15T03:38:08.950Z,57465.19
2022-09-15T03:39:12.362Z,50181.06
2022-09-15T03:40:14.680Z,49822.66
2022-09-15T03:41:16.990Z,43208.94
2022-09-15T03:42:19.812Z,42224.38
2022-09-15T03:43:21.889Z,44869.00
2022-09-15T03:44:24.179Z,44208.53
2022-09-15T03:45:26.394Z,48176.84
2022-09-15T03:46:29.477Z,45539.47
2022-09-15T03:47:33.043Z,45196.81
2022-09-15T03:48:36.377Z,42239.75
2022-09-15T03:49:38.836Z,44204.41
2022-09-15T03:50:40.967Z,38582.94
2022-09-15T03:51:43.266Z,36937.31
2022-09-15T03:52:45.379Z,38593.06
2022-09-15T03:53:47.524Z,37925.06
2022-09-15T03:56:22.961Z,35978.63
2022-09-15T03:57:25.081Z,43889.56
2022-09-15T03:58:30.592Z,44214.34
2022-09-15T03:59:33.176Z,44874.56
2022-09-15T04:00:35.468Z,44862.72
2022-09-15T04:01:37.713Z,39256.00
2022-09-15T04:02:39.911Z,42556.75
2022-09-15T04:03:46.334Z,42556.09
2022-09-15T04:04:49.773Z,42892.50
2022-09-15T04:05:51.899Z,43888.19
2022-09-15T04:06:54.068Z,45208.03
2022-09-15T04:07:56.315Z,43880.03
2022-09-15T04:09:00.185Z,43557.59
2022-09-15T04:10:02.626Z,44214.00
2022-09-15T04:11:09.863Z,45235.44
2022-09-15T04:12:12.000Z,45192.94
2022-09-15T04:13:14.257Z,43225.34
2022-09-15T04:14:16.401Z,45875.56
2022-09-15T04:15:19.973Z,45228.44
2022-09-15T04:16:24.070Z,46547.72
2022-09-15T04:17:26.958Z,46865.91
2022-09-15T04:18:30.202Z,46877.22
2022-09-15T04:19:32.369Z,50846.69
2022-09-15T04:20:34.477Z,51172.34
2022-09-15T04:21:36.658Z,51845.03
2022-09-15T04:22:39.010Z,54494.34
2022-09-15T04:23:42.632Z,54169.97
2022-09-15T04:24:44.902Z,50516.63
2022-09-15T04:26:06.367Z,53209.91
2022-09-15T04:27:08.610Z,55159.72
2022-09-15T04:28:10.729Z,52172.75
2022-09-15T04:29:15.766Z,53858.25
2022-09-15T04:30:17.967Z,56823.63
2022-09-15T04:31:20.480Z,57832.41
2022-09-15T04:32:22.665Z,61817.19
2022-09-15T04:33:24.849Z,60141.31
2022-09-15T04:34:27.035Z,56491.84
2022-09-15T04:35:29.165Z,55169.66
2022-09-15T04:36:31.656Z,56493.63
2022-09-15T04:37:33.843Z,58162.09
2022-09-15T04:38:36.474Z,56834.34
2022-09-15T04:39:38.982Z,60156.00
2022-09-15T04:40:41.088Z,62810.28
2022-09-15T04:41:43.271Z,59150.31
2022-09-15T04:42:47.087Z,57847.41
2022-09-15T04:43:49.302Z,60815.13
2022-09-15T04:44:51.564Z,61480.53
2022-09-15T04:45:54.874Z,58502.41
2022-09-15T04:46:57.066Z,61818.66
2022-09-15T04:47:59.173Z,62147.06
2022-09-15T04:49:01.336Z,61482.00
2022-09-15T04:50:03.919Z,61156.97
2022-09-15T04:51:08.997Z,58181.34
2022-09-15T04:52:11.462Z,60824.72
2022-09-15T04:53:14.148Z,63483.59
2022-09-15T04:54:16.336Z,55154.94
2022-09-15T04:55:18.593Z,55833.56
2022-09-15T04:56:23.435Z,56854.00
2022-09-15T04:57:25.610Z,59491.72
2022-09-15T04:58:27.798Z,61816.69
2022-09-15T04:59:29.980Z,61155.06
2022-09-15T05:00:37.278Z,58507.94
2022-09-15T05:01:39.455Z,58484.47
2022-09-15T05:02:41.867Z,59159.16
2022-09-15T05:03:44.581Z,61812.81
2022-09-15T05:04:48.622Z,57846.97
2022-09-15T05:05:50.927Z,59151.72
2022-09-15T05:06:53.027Z,57824.69
2022-09-15T05:07:55.240Z,60484.84
2022-09-15T05:08:58.305Z,59496.88
2022-09-15T05:10:00.427Z,61152.16
2022-09-15T05:11:05.978Z,63174.06
2022-09-15T05:12:08.242Z,64803.47
2022-09-15T05:13:10.400Z,59804.53
2022-09-15T05:14:12.701Z,53812.25
2022-09-15T05:15:14.903Z,45863.44
2022-09-15T05:16:22.657Z,42907.78
2022-09-15T05:17:26.764Z,48511.91
2022-09-15T05:18:29.010Z,49502.53
2022-09-15T05:19:31.178Z,50183.81
2022-09-15T05:20:33.550Z,56141.97
2022-09-15T05:21:35.668Z,58145.19
2022-09-15T05:22:41.658Z,57135.72
2022-09-15T05:23:44.551Z,56485.63
2022-09-15T05:24:47.283Z,55812.53
2022-09-15T05:25:57.031Z,54859.06
2022-09-15T05:26:59.155Z,60131.34
2022-09-15T05:28:01.448Z,61458.22
2022-09-15T05:29:03.640Z,59458.47
2022-09-15T05:30:35.165Z,52167.84
2022-09-15T05:31:31.826Z,50846.28
2022-09-15T05:32:34.136Z,53142.81
2022-09-15T05:33:36.505Z,58144.28
2022-09-15T05:34:38.643Z,59134.94
2022-09-15T05:35:40.716Z,58135.13
2022-09-15T05:36:42.899Z,62137.25
2022-09-15T05:37:45.127Z,56479.41
2022-09-15T05:38:47.460Z,59133.06
2022-09-15T05:39:49.668Z,55812.53
2022-09-15T05:40:51.916Z,61799.16
2022-09-15T05:41:54.119Z,67135.00
2022-09-15T05:42:56.258Z,76804.06
2022-09-15T05:43:59.075Z,80157.84
2022-09-15T05:45:01.195Z,79792.13
2022-09-15T05:46:04.303Z,79843.03
2022-09-15T05:47:06.463Z,90548.38
2022-09-15T05:48:12.403Z,88224.59
2022-09-15T05:49:14.539Z,93539.47
2022-09-15T05:50:16.849Z,91170.00
2022-09-15T05:51:18.959Z,77800.56
2022-09-15T05:52:21.682Z,76452.84
2022-09-15T05:53:24.567Z,77804.31
2022-09-15T05:54:27.475Z,80486.66
2022-09-15T05:55:29.718Z,89520.91
2022-09-15T05:56:32.184Z,93210.41
2022-09-15T05:57:34.290Z,96554.50
2022-09-15T05:58:39.556Z,96631.97
2022-09-15T05:59:43.869Z,109022.41
2022-09-15T06:00:45.985Z,114091.69
2022-09-15T06:01:48.153Z,117445.41
2022-09-15T06:02:50.487Z,111711.34
2022-09-15T06:03:53.323Z,101585.41
2022-09-15T06:04:55.416Z,95911.66
2022-09-15T06:06:05.052Z,104726.53
2022-09-15T06:07:07.186Z,113093.81
2022-09-15T06:08:09.546Z,118518.22
2022-09-15T06:09:11.849Z,125566.59
2022-09-15T06:10:14.068Z,111714.03
2022-09-15T06:11:19.003Z,114436.06
2022-09-15T06:12:21.978Z,116100.72
2022-09-15T06:13:24.131Z,117464.34
2022-09-15T06:14:26.244Z,123858.50
2022-09-15T06:15:28.408Z,119145.00
2022-09-15T06:16:33.265Z,121573.84
2022-09-15T06:17:36.108Z,133035.97
2022-09-15T06:18:40.351Z,125951.34
2022-09-15T06:19:42.525Z,121532.59
2022-09-15T06:20:44.678Z,131324.31
2022-09-15T06:21:48.652Z,130615.88
2022-09-15T06:22:52.715Z,118819.22
2022-09-15T06:24:04.608Z,109044.31
2022-09-15T06:25:07.451Z,102932.56
2022-09-15T06:26:18.834Z,105044.31
2022-09-15T06:27:20.980Z,121509.03
2022-09-15T06:28:23.257Z,126268.97
2022-09-15T06:29:25.359Z,132328.84
2022-09-15T06:30:27.489Z,125909.63
2022-09-15T06:31:32.145Z,136132.84
2022-09-15T06:32:36.166Z,136807.47
2022-09-15T06:33:43.576Z,123593.69
2022-09-15T06:34:46.106Z,132030.00
2022-09-15T06:35:48.199Z,142809.59
2022-09-15T06:36:50.314Z,137360.72
2022-09-15T06:37:52.404Z,140464.06
2022-09-15T06:38:55.043Z,149649.69
2022-09-15T06:39:57.383Z,149603.47
2022-09-15T06:40:59.846Z,149674.03
2022-09-15T06:42:03.725Z,149674.03
2022-09-15T06:43:09.617Z,149705.69
2022-09-15T06:44:12.553Z,149654.56
2022-09-15T06:45:14.724Z,149695.97
2022-09-15T06:46:21.762Z,149748.28
2022-09-15T06:47:23.976Z,149705.69
2022-09-15T06:48:26.145Z,149756.78
2022-09-15T06:49:29.019Z,149799.47
2022-09-15T06:50:31.164Z,149792.19
2022-09-15T06:51:35.545Z,149793.38
2022-09-15T06:52:37.699Z,149686.19
2022-09-15T06:53:40.032Z,149745.84
2022-09-15T06:54:42.167Z,149764.13
2022-09-15T06:55:44.295Z,149730.03
2022-09-15T06:56:47.264Z,149768.97
2022-09-15T06:57:49.992Z,149803.13
2022-09-15T06:58:52.351Z,149837.22
2022-09-15T06:59:54.544Z,149818.91
2022-09-15T07:01:04.370Z,149927.31
2022-09-15T07:02:06.609Z,149904.16
2022-09-15T07:03:08.938Z,149866.44
2022-09-15T07:04:11.129Z,149788.47
2022-09-15T07:05:13.266Z,149854.22
2022-09-15T07:06:15.393Z,149950.44
2022-09-15T07:07:17.625Z,149839.63
2022-09-15T07:08:19.768Z,149924.88
2022-09-15T07:09:22.034Z,149876.16
2022-09-15T07:10:24.145Z,150015.00
2022-09-15T07:11:26.521Z,150084.44
2022-09-15T07:12:28.624Z,150093.00
2022-09-15T07:13:31.400Z,150142.94
2022-09-15T07:14:33.545Z,150069.84
2022-09-15T07:15:35.682Z,150124.69
2022-09-15T07:16:38.309Z,150095.44
2022-09-15T07:17:40.608Z,150032.09
2022-09-15T07:18:43.690Z,150040.59
2022-09-15T07:19:46.012Z,150051.56
2022-09-15T07:20:48.999Z,150166.09
2022-09-15T07:21:52.775Z,150107.59
2022-09-15T07:22:54.875Z,150041.81
2022-09-15T07:23:57.874Z,150153.94
2022-09-15T07:25:00.031Z,150141.72
2022-09-15T07:26:10.043Z,150227.06
2022-09-15T07:27:12.201Z,150180.69
2022-09-15T07:28:15.713Z,150273.38
2022-09-15T07:29:17.849Z,150231.94
2022-09-15T07:30:20.016Z,150222.22
2022-09-15T07:31:24.650Z,150275.81
2022-09-15T07:32:26.901Z,150127.13
2022-09-15T07:33:29.291Z,150108.81
2022-09-15T07:34:31.587Z,150183.13
2022-09-15T07:35:33.776Z,150224.63
2022-09-15T07:36:36.555Z,150356.28
2022-09-15T07:37:38.783Z,150361.13
2022-09-15T07:38:45.902Z,150542.84
2022-09-15T07:39:48.067Z,150497.72
2022-09-15T07:40:50.309Z,150514.81
2022-09-15T07:41:52.440Z,150548.97
2022-09-15T07:42:54.571Z,150614.88
2022-09-15T07:43:59.479Z,150613.66
2022-09-15T07:45:01.695Z,150531.88
2022-09-15T07:46:04.525Z,150617.31
2022-09-15T07:47:06.723Z,150612.38
2022-09-15T07:48:08.963Z,150612.38
2022-09-15T07:49:11.206Z,150668.50
2022-09-15T07:50:14.367Z,150722.22
2022-09-15T07:51:17.434Z,150729.53
2022-09-15T07:52:19.605Z,150863.78
2022-09-15T07:53:21.985Z,150934.63
2022-09-15T07:54:24.151Z,150855.25
2022-09-15T07:55:26.345Z,150932.19
2022-09-15T07:56:28.488Z,150943.19
2022-09-15T07:57:30.661Z,151086.00
2022-09-15T07:58:33.623Z,151034.72
2022-09-15T07:59:39.377Z,151115.38
2022-09-15T08:00:43.275Z,151046.94
2022-09-15T08:01:45.587Z,151062.81
2022-09-15T08:02:48.510Z,151115.38
2022-09-15T08:03:52.766Z,150981.03
2022-09-15T08:04:56.461Z,150839.38
2022-09-15T08:06:02.721Z,150819.88
2022-09-15T08:07:04.829Z,150757.63
2022-09-15T08:08:07.103Z,150714.91
2022-09-15T08:09:14.535Z,150646.59
2022-09-15T08:10:16.708Z,150624.63
2022-09-15T08:11:20.912Z,150551.41
2022-09-15T08:12:22.988Z,150590.47
2022-09-15T08:13:25.316Z,150434.31
2022-09-15T08:14:27.488Z,150573.38
2022-09-15T08:15:29.634Z,150706.31
2022-09-15T08:16:31.880Z,150634.34
2022-09-15T08:17:35.001Z,150590.47
2022-09-15T08:18:38.244Z,150509.91
2022-09-15T08:19:40.408Z,150592.91
2022-09-15T08:20:43.687Z,150473.34
2022-09-15T08:21:45.805Z,150401.41
2022-09-15T08:22:48.102Z,150400.19
2022-09-15T08:23:52.714Z,150473.34
2022-09-15T08:24:54.828Z,150519.69
2022-09-15T08:25:56.974Z,150545.25
2022-09-15T08:26:59.073Z,150440.41
2022-09-15T08:28:01.261Z,150502.59
2022-09-15T08:29:03.848Z,150544.03
2022-09-15T08:30:06.965Z,150444.06
2022-09-15T08:31:11.745Z,150274.59
2022-09-15T08:32:13.982Z,150317.28
2022-09-15T08:33:16.129Z,150513.56
2022-09-15T08:34:18.335Z,150575.81
2022-09-15T08:35:20.530Z,150695.38
2022-09-15T08:36:27.413Z,150773.47
2022-09-15T08:37:29.558Z,150753.97
2022-09-15T08:38:32.495Z,150639.22
2022-09-15T08:39:34.812Z,150567.28
2022-09-15T08:40:38.036Z,150675.81
2022-09-15T08:41:44.063Z,150718.56
2022-09-15T08:42:48.324Z,150739.25
2022-09-15T08:44:00.786Z,150731.94
2022-09-15T08:45:12.035Z,150871.09
2022-09-15T08:46:21.649Z,150995.66
2022-09-15T08:47:25.523Z,151061.59
2022-09-15T08:48:33.888Z,151175.22
2022-09-15T08:49:53.945Z,151186.19
2022-09-15T08:51:00.396Z,151239.94
2022-09-15T08:52:10.096Z,151424.47
2022-09-15T08:53:31.873Z,151688.53
2022-09-15T08:54:34.093Z,151662.84
2022-09-15T08:55:36.689Z,151775.41
2022-09-15T08:56:41.585Z,151962.59
2022-09-15T08:57:44.943Z,151757.06
2022-09-15T08:58:47.151Z,151790.06
2022-09-15T08:59:49.345Z,151697.09
2022-09-15T09:01:03.459Z,151704.47
2022-09-15T09:02:11.862Z,151816.97
2022-09-15T09:03:22.962Z,151775.41
2022-09-15T09:04:47.056Z,151812.09
2022-09-15T09:05:55.253Z,151699.56
2022-09-15T09:07:11.004Z,151555.25
2022-09-15T09:08:50.381Z,151303.47
2022-09-15T09:09:56.817Z,151352.34
2022-09-15T09:11:34.521Z,151309.63
2022-09-15T09:12:44.520Z,151187.41
2022-09-15T09:13:56.484Z,151159.31
2022-09-15T09:15:13.827Z,151160.53
2022-09-15T09:16:56.147Z,150993.22
2022-09-15T09:18:26.133Z,150690.50
2022-09-15T09:19:59.209Z,150535.53
2022-09-15T09:21:12.329Z,150505.03
2022-09-15T09:22:21.726Z,150417.28
2022-09-15T09:23:28.278Z,150439.19
2022-09-15T09:24:47.854Z,150329.44
2022-09-15T09:25:50.209Z,150123.47
2022-09-15T09:26:55.289Z,150134.41
2022-09-15T09:27:58.601Z,150144.16
2022-09-15T09:29:22.616Z,150095.44
2022-09-15T09:30:28.233Z,150157.56
2022-09-15T09:31:30.471Z,149924.88
2022-09-15T09:32:40.667Z,150067.41
2022-09-15T09:33:51.351Z,149982.09
2022-09-15T09:34:56.532Z,150002.84
2022-09-15T09:36:01.163Z,149881.03
2022-09-15T09:37:11.809Z,149932.19
2022-09-15T09:38:21.575Z,150015.00
2022-09-15T09:39:24.070Z,149878.59
2022-09-15T09:40:26.459Z,149896.88
2022-09-15T09:41:36.012Z,149937.03
2022-09-15T09:42:39.536Z,149968.72
2022-09-15T09:43:47.485Z,150007.72
2022-09-15T09:44:49.737Z,149864.00
2022-09-15T09:45:52.777Z,149864.00
2022-09-15T09:46:54.926Z,149868.84
2022-09-15T09:48:15.452Z,150022.38
2022-09-15T09:49:23.689Z,150083.22
2022-09-15T09:50:43.543Z,150221.00
2022-09-15T09:51:48.859Z,150255.09
2022-09-15T09:52:51.881Z,150378.19
2022-09-15T09:53:54.074Z,150441.63
2022-09-15T09:55:01.775Z,150592.91
2022-09-15T09:56:17.895Z,150555.06
2022-09-15T09:57:30.303Z,150719.78
2022-09-15T09:58:32.467Z,150646.59
2022-09-15T09:59:45.166Z,150746.66
2022-09-15T10:00:47.831Z,150827.19
2022-09-15T10:02:17.324Z,150946.84
2022-09-15T10:03:23.163Z,150984.69
2022-09-15T10:04:25.296Z,150796.66
2022-09-15T10:05:28.504Z,150957.81
2022-09-15T10:06:34.082Z,151171.50
2022-09-15T10:07:41.521Z,151419.59
2022-09-15T10:09:04.225Z,151665.28
2022-09-15T10:10:07.082Z,151603.00
2022-09-15T10:11:10.975Z,151457.47
2022-09-15T10:12:21.216Z,151513.72
2022-09-15T10:13:23.410Z,151897.78
2022-09-15T10:14:29.306Z,151907.53
2022-09-15T10:15:35.287Z,152228.22
2022-09-15T10:16:37.469Z,152411.88
2022-09-15T10:17:44.078Z,152504.97
2022-09-15T10:18:53.592Z,152933.91
2022-09-15T10:19:58.708Z,152916.72
2022-09-15T10:21:07.367Z,152997.69
2022-09-15T10:22:10.182Z,152708.38
2022-09-15T10:23:18.392Z,152351.88
2022-09-15T10:24:35.170Z,152339.63
2022-09-15T10:26:01.465Z,152482.91
2022-09-15T10:27:21.112Z,152337.19
2022-09-15T10:28:26.102Z,152541.72
2022-09-15T10:29:39.058Z,152513.53
2022-09-15T10:31:16.042Z,152709.63
2022-09-15T10:32:25.880Z,152242.88
2022-09-15T10:33:35.124Z,152398.41
2022-09-15T10:34:37.307Z,152289.38
2022-09-15T10:35:42.550Z,151846.34
2022-09-15T10:36:45.424Z,151758.28
2022-09-15T10:37:59.868Z,151672.66
2022-09-15T10:39:04.965Z,151714.22
2022-09-15T10:40:27.001Z,151965.03
2022-09-15T10:41:37.644Z,152010.28
2022-09-15T10:42:58.245Z,151518.59
2022-09-15T10:44:21.460Z,151352.34
2022-09-15T10:45:34.187Z,151384.13
2022-09-15T10:46:52.838Z,151154.44
2022-09-15T10:47:54.999Z,151178.88
2022-09-15T10:49:15.587Z,151261.94
2022-09-15T10:50:32.157Z,151112.94
2022-09-15T10:51:50.253Z,151292.50
2022-09-15T10:52:58.115Z,151220.38
2022-09-15T10:54:06.254Z,151178.88
2022-09-15T10:55:51.696Z,151252.19
2022-09-15T10:58:45.865Z,151708.13
2022-09-15T11:00:12.710Z,151660.41
2022-09-15T11:01:29.959Z,151733.84
2022-09-15T11:03:05.865Z,151728.91
2022-09-15T11:04:08.373Z,151456.25
2022-09-15T11:05:28.961Z,151506.38
2022-09-15T11:06:52.367Z,151819.41
2022-09-15T11:08:01.723Z,151879.41
2022-09-15T11:09:25.930Z,152029.94
2022-09-15T11:10:35.392Z,152000.53
2022-09-15T11:11:37.450Z,152171.91
2022-09-15T11:13:00.818Z,152291.81
2022-09-15T11:14:40.701Z,152365.34
2022-09-15T11:15:59.873Z,152011.50
2022-09-15T11:17:10.692Z,151820.66
2022-09-15T11:18:43.583Z,151961.34
2022-09-15T11:19:59.088Z,152017.66
2022-09-15T11:21:21.849Z,152304.13
2022-09-15T11:22:35.512Z,151875.75
2022-09-15T11:23:42.616Z,151783.97
2022-09-15T11:24:51.456Z,152027.44
2022-09-15T11:26:02.264Z,152125.34
2022-09-15T11:27:22.622Z,152244.09
2022-09-15T11:28:32.942Z,152153.47
2022-09-15T11:29:51.861Z,152072.75
2022-09-15T11:31:13.419Z,152107.00
2022-09-15T11:32:21.074Z,152208.63
2022-09-15T11:33:32.180Z,151720.38
2022-09-15T11:34:41.392Z,152018.88
2022-09-15T11:36:01.147Z,152198.84
2022-09-15T11:37:09.943Z,152093.50
2022-09-15T11:38:20.038Z,151993.16
2022-09-15T11:39:29.481Z,152137.59
2022-09-15T11:40:39.327Z,152284.50
2022-09-15T11:41:45.048Z,152191.47
2022-09-15T11:42:57.501Z,152198.84
2022-09-15T11:44:06.054Z,152225.72
2022-09-15T11:45:19.935Z,152245.31
2022-09-15T11:46:45.302Z,152056.81
2022-09-15T11:47:52.313Z,152007.84
2022-09-15T11:49:06.409Z,151831.69
2022-09-15T11:50:16.589Z,151746.06
2022-09-15T11:51:21.503Z,151943.00
2022-09-15T11:52:40.762Z,152108.22
2022-09-15T11:54:15.926Z,152485.38
2022-09-15T11:55:24.102Z,152429.03
2022-09-15T11:56:32.011Z,152562.56
2022-09-15T11:57:44.566Z,152372.69
2022-09-15T11:59:06.888Z,152342.09
2022-09-15T12:00:14.694Z,152239.22
2022-09-15T12:01:21.462Z,152236.78
2022-09-15T12:02:31.745Z,151907.53
2022-09-15T12:04:08.504Z,152147.38
2022-09-15T12:05:13.446Z,152142.47
2022-09-15T12:06:46.327Z,152240.44
2022-09-15T12:07:55.061Z,152337.19
2022-09-15T12:09:03.219Z,152284.50
2022-09-15T12:10:36.679Z,152485.38
2022-09-15T12:11:43.882Z,152267.38
2022-09-15T12:12:47.716Z,152144.94
2022-09-15T12:13:50.577Z,151951.56
2022-09-15T12:14:53.452Z,151804.78
2022-09-15T12:15:56.273Z,151896.50
2022-09-15T12:16:59.389Z,152104.56
2022-09-15T12:18:06.740Z,151949.13
2022-09-15T12:19:49.822Z,151956.44
2022-09-15T12:21:01.783Z,151973.59
2022-09-15T12:22:16.168Z,152022.56
2022-09-15T12:23:57.111Z,151990.69
2022-09-15T12:25:01.902Z,152034.81
2022-09-15T12:26:20.158Z,152087.41
2022-09-15T12:27:22.288Z,152016.44
2022-09-15T12:28:24.469Z,151758.28
2022-09-15T12:29:26.604Z,151815.75
2022-09-15T12:30:41.779Z,151697.09
2022-09-15T12:31:45.799Z,151481.94
2022-09-15T12:32:47.873Z,151480.72
2022-09-15T12:34:06.032Z,151516.16
2022-09-15T12:35:33.213Z,151279.06
2022-09-15T12:36:41.548Z,151066.47
2022-09-15T12:37:46.573Z,150956.59
2022-09-15T12:38:49.466Z,150663.63
2022-09-15T12:39:52.984Z,150539.19
2022-09-15T12:40:59.581Z,150548.97
2022-09-15T12:42:26.919Z,150561.16
2022-09-15T12:43:31.689Z,150495.28
2022-09-15T12:44:41.478Z,150514.81
2022-09-15T12:45:58.275Z,150492.84
2022-09-15T12:47:03.062Z,150506.25
2022-09-15T12:48:19.592Z,150566.06
2022-09-15T12:49:29.087Z,150508.69
2022-09-15T12:50:42.785Z,150561.16
2022-09-15T12:51:50.117Z,150865.00
2022-09-15T12:52:57.163Z,150957.81
2022-09-15T12:54:04.802Z,151017.66
2022-09-15T12:55:15.709Z,151213.06
2022-09-15T12:56:26.410Z,151222.81